Time;durP1;ratioP1;P1;durP2;ratioP2;P2;SDS_P1;SDS_P2;PMS_P1;PMS_P2;Temp;Humidity;BMP_temperature;BMP_pressure;BME280_temperature;BME280_humidity;BME280_pressure;Samples;Min_cycle;Max_cycle;Signal;HPM_P1;HPM_P2
2022/11/22 00:02:05;;;;;;;8.20;5.87;;;4.50;99.90;;;;;;5044055;28;20179;-59
2022/11/22 00:04:30;;;;;;;9.87;6.53;;;4.60;99.90;;;;;;5046050;28;20593;-59
2022/11/22 00:06:56;;;;;;;8.77;6.53;;;4.60;99.90;;;;;;5041473;28;20179;-61
2022/11/22 00:09:21;;;;;;;9.10;6.60;;;4.60;99.90;;;;;;5046079;28;20204;-59
2022/11/22 00:11:47;;;;;;;9.30;6.53;;;4.60;99.90;;;;;;5046936;28;20244;-59
2022/11/22 00:14:12;;;;;;;7.80;5.90;;;4.70;99.90;;;;;;5047228;28;20183;-59
2022/11/22 00:16:38;;;;;;;10.07;6.30;;;4.70;99.90;;;;;;5048702;28;20757;-60
2022/11/22 00:19:04;;;;;;;11.23;6.50;;;4.70;99.90;;;;;;5046958;28;20211;-59
2022/11/22 00:21:29;;;;;;;15.70;6.50;;;4.70;99.90;;;;;;5047691;28;20252;-59
2022/11/22 00:23:56;;;;;;;8.30;6.00;;;4.70;99.90;;;;;;5043039;28;20186;-59
2022/11/22 00:26:25;;;;;;;8.60;6.17;;;4.70;99.90;;;;;;5044698;28;20179;-59
2022/11/22 00:28:50;;;;;;;8.20;5.80;;;4.70;99.90;;;;;;5041374;28;20445;-59
2022/11/22 00:31:16;;;;;;;8.30;5.13;;;4.70;99.90;;;;;;5044741;28;20612;-59
2022/11/22 00:33:41;;;;;;;8.33;5.13;;;4.80;99.90;;;;;;5031344;28;20190;-59
2022/11/22 00:36:07;;;;;;;6.60;5.50;;;4.80;99.90;;;;;;5044608;28;20493;-58
2022/11/22 00:38:33;;;;;;;8.50;4.90;;;4.80;99.90;;;;;;5047032;28;20210;-58
2022/11/22 00:40:58;;;;;;;8.37;5.50;;;4.80;99.90;;;;;;5045947;28;20210;-58
2022/11/22 00:43:24;;;;;;;10.00;6.37;;;4.90;99.90;;;;;;5047038;28;20336;-58
2022/11/22 00:45:50;;;;;;;8.70;6.17;;;4.90;99.90;;;;;;5046905;28;20232;-59
2022/11/22 00:48:15;;;;;;;7.83;6.00;;;4.90;99.90;;;;;;5051413;28;20190;-59
2022/11/22 00:50:41;;;;;;;9.23;6.57;;;5.00;99.90;;;;;;5039497;28;20183;-60
2022/11/22 00:53:06;;;;;;;8.30;6.10;;;5.00;99.90;;;;;;5045013;28;20187;-59
2022/11/22 00:55:32;;;;;;;7.30;6.07;;;5.00;99.90;;;;;;5046061;28;20186;-59
2022/11/22 00:57:58;;;;;;;7.43;5.30;;;5.00;99.90;;;;;;5048092;28;20203;-60
2022/11/22 01:00:23;;;;;;;6.90;5.33;;;4.90;99.90;;;;;;5048166;28;20199;-58
2022/11/22 01:02:49;;;;;;;7.40;5.70;;;5.00;99.90;;;;;;5031420;28;20183;-58
2022/11/22 01:05:16;;;;;;;7.03;5.70;;;5.00;99.90;;;;;;5045213;28;20314;-58
2022/11/22 01:07:43;;;;;;;5.70;5.00;;;5.00;99.90;;;;;;5030335;28;20203;-58
2022/11/22 01:10:09;;;;;;;5.67;5.07;;;5.00;99.90;;;;;;5044741;28;20857;-60
2022/11/22 01:12:35;;;;;;;6.90;5.27;;;5.00;99.90;;;;;;5046546;28;20471;-58
2022/11/22 01:15:01;;;;;;;7.13;5.37;;;5.00;99.90;;;;;;5039042;28;20480;-58
2022/11/22 01:17:27;;;;;;;7.27;5.07;;;5.00;99.90;;;;;;5047976;28;20732;-58
2022/11/22 01:19:52;;;;;;;6.53;5.67;;;5.00;99.90;;;;;;5029047;28;20489;-57
2022/11/22 01:22:18;;;;;;;8.20;5.47;;;5.00;99.90;;;;;;5048249;28;20182;-58
2022/11/22 01:24:44;;;;;;;8.53;5.60;;;5.00;99.90;;;;;;5049255;28;20567;-58
2022/11/22 01:27:10;;;;;;;6.53;5.23;;;5.00;99.90;;;;;;5041593;28;20187;-58
2022/11/22 01:29:35;;;;;;;9.67;5.90;;;5.00;99.90;;;;;;5048651;28;20195;-57
2022/11/22 01:32:01;;;;;;;8.13;6.03;;;5.00;99.90;;;;;;5030223;28;20186;-58
2022/11/22 01:34:26;;;;;;;9.17;5.87;;;5.00;99.90;;;;;;5041699;28;20641;-58
2022/11/22 01:36:52;;;;;;;7.20;5.37;;;5.00;99.90;;;;;;5042823;28;20183;-58
2022/11/22 01:39:18;;;;;;;7.67;6.20;;;5.00;99.90;;;;;;5028309;28;20296;-58
2022/11/22 01:41:43;;;;;;;7.40;5.60;;;5.00;99.90;;;;;;5046512;28;20755;-58
2022/11/22 01:44:31;;;;;;;6.17;5.57;;;5.00;99.90;;;;;;5046642;28;20263;-58
2022/11/22 01:47:08;;;;;;;6.50;5.00;;;5.00;99.90;;;;;;5045856;28;20219;-58
2022/11/22 01:49:54;;;;;;;8.23;5.73;;;5.00;99.90;;;;;;5050582;28;20851;-58
2022/11/22 01:52:26;;;;;;;6.90;5.33;;;5.00;99.90;;;;;;5047460;28;20433;-58
2022/11/22 01:55:02;;;;;;;6.33;5.10;;;5.00;99.90;;;;;;5044395;28;20445;-57
2022/11/22 01:57:32;;;;;;;7.10;5.30;;;5.10;99.90;;;;;;5041875;28;20610;-58
2022/11/22 02:00:02;;;;;;;6.87;4.90;;;5.10;99.90;;;;;;5045518;28;20460;-58
2022/11/22 02:02:28;;;;;;;7.20;5.03;;;5.10;99.90;;;;;;5028794;28;20608;-58
2022/11/22 02:04:56;;;;;;;8.33;4.90;;;5.10;99.90;;;;;;5042072;28;20526;-58
2022/11/22 02:07:27;;;;;;;10.07;5.20;;;5.10;99.90;;;;;;5045090;28;20637;-59
2022/11/22 02:09:53;;;;;;;6.30;4.20;;;5.10;99.90;;;;;;5045356;28;20480;-59
2022/11/22 02:12:22;;;;;;;4.73;3.90;;;5.10;99.90;;;;;;5043412;28;20461;-58
2022/11/22 02:14:48;;;;;;;4.77;3.50;;;5.10;99.90;;;;;;5045118;28;20600;-59
2022/11/22 02:17:14;;;;;;;5.20;3.90;;;5.10;99.90;;;;;;5045647;28;20432;-59
2022/11/22 02:19:42;;;;;;;3.97;3.50;;;5.10;99.90;;;;;;5049371;28;20854;-59
2022/11/22 02:22:28;;;;;;;4.80;3.60;;;5.10;99.90;;;;;;5041960;28;20826;-58
2022/11/22 02:25:19;;;;;;;4.50;3.70;;;5.10;99.90;;;;;;5029220;28;20434;-60
2022/11/22 02:27:45;;;;;;;3.87;3.47;;;5.10;99.90;;;;;;5046150;28;20426;-59
2022/11/22 02:30:11;;;;;;;5.27;3.60;;;5.10;99.90;;;;;;5043609;28;20437;-59
2022/11/22 02:32:36;;;;;;;3.50;3.17;;;5.10;99.90;;;;;;5029263;28;20195;-59
2022/11/22 02:35:18;;;;;;;6.83;5.00;;;5.10;99.90;;;;;;5048797;28;20444;-59
2022/11/22 02:37:44;;;;;;;4.07;3.47;;;5.10;99.90;;;;;;5039180;28;20186;-58
2022/11/22 02:40:14;;;;;;;5.50;2.93;;;5.10;99.90;;;;;;5045828;28;20591;-59
2022/11/22 02:42:43;;;;;;;4.20;3.63;;;5.10;99.90;;;;;;5042408;28;20618;-59
2022/11/22 02:45:09;;;;;;;4.13;3.30;;;5.10;99.90;;;;;;5046012;28;20528;-59
2022/11/22 02:47:34;;;;;;;4.30;3.37;;;5.10;99.90;;;;;;5042823;28;20437;-58
2022/11/22 02:50:00;;;;;;;4.83;3.60;;;5.10;99.90;;;;;;5039103;28;20442;-58
2022/11/22 02:52:26;;;;;;;3.40;3.10;;;5.10;99.90;;;;;;5044064;28;20201;-59
2022/11/22 02:54:51;;;;;;;6.73;4.00;;;5.00;99.90;;;;;;5046364;28;20182;-59
2022/11/22 02:57:17;;;;;;;5.93;3.87;;;5.00;99.90;;;;;;5047498;28;20187;-59
2022/11/22 02:59:42;;;;;;;3.20;2.90;;;5.00;99.90;;;;;;5041842;28;20268;-58
2022/11/22 03:02:08;;;;;;;4.60;3.40;;;5.00;99.90;;;;;;5029382;28;20202;-59
2022/11/22 03:04:34;;;;;;;7.17;3.20;;;5.00;99.90;;;;;;5040879;28;20564;-59
2022/11/22 03:07:00;;;;;;;3.47;2.70;;;5.00;99.90;;;;;;5038626;28;20187;-59
2022/11/22 03:09:27;;;;;;;5.63;3.53;;;5.00;99.90;;;;;;5043289;28;20211;-59
2022/11/22 03:11:53;;;;;;;3.63;3.30;;;4.90;99.90;;;;;;5046695;28;20429;-59
2022/11/22 03:14:19;;;;;;;3.93;3.30;;;4.90;99.90;;;;;;5025883;28;20980;-59
2022/11/22 03:16:46;;;;;;;3.43;3.00;;;4.90;99.90;;;;;;5046423;28;20440;-60
2022/11/22 03:19:12;;;;;;;2.50;2.30;;;4.90;99.90;;;;;;5044048;28;20225;-59
2022/11/22 03:21:39;;;;;;;5.73;2.90;;;4.90;99.90;;;;;;5046361;28;21092;-59
2022/11/22 03:24:06;;;;;;;4.27;3.20;;;4.90;99.90;;;;;;5043308;28;20439;-59
2022/11/22 03:26:31;;;;;;;4.10;3.00;;;4.90;99.90;;;;;;5043832;28;20796;-58
2022/11/22 03:28:57;;;;;;;3.40;3.10;;;4.90;99.90;;;;;;5040783;28;20453;-57
2022/11/22 03:31:23;;;;;;;3.63;2.90;;;4.90;99.90;;;;;;5042410;28;20203;-58
2022/11/22 03:33:48;;;;;;;3.20;2.90;;;4.90;99.90;;;;;;5047207;28;20210;-58
2022/11/22 03:36:14;;;;;;;4.60;3.20;;;4.90;99.90;;;;;;5047648;28;20266;-58
2022/11/22 03:38:39;;;;;;;5.23;3.80;;;4.90;99.90;;;;;;5027229;28;20285;-59
2022/11/22 03:41:05;;;;;;;3.50;3.00;;;4.90;99.90;;;;;;5046462;28;20246;-58
2022/11/22 03:43:31;;;;;;;7.57;3.70;;;4.90;99.90;;;;;;5047148;28;20681;-60
2022/11/22 03:45:56;;;;;;;9.17;4.00;;;4.90;99.90;;;;;;5048978;28;20179;-57
2022/11/22 03:48:22;;;;;;;4.47;3.50;;;4.90;99.90;;;;;;5054121;28;20205;-58
2022/11/22 03:50:47;;;;;;;5.10;3.33;;;4.90;99.90;;;;;;5048317;28;20187;-58
2022/11/22 03:53:13;;;;;;;4.30;2.93;;;4.90;99.90;;;;;;5046467;28;20191;-58
2022/11/22 03:55:39;;;;;;;6.53;3.47;;;4.80;99.90;;;;;;5050929;28;20183;-58
2022/11/22 03:58:05;;;;;;;3.20;2.80;;;4.90;99.90;;;;;;5046293;28;20298;-59
2022/11/22 04:00:31;;;;;;;4.17;3.57;;;4.80;99.90;;;;;;5046143;28;20634;-58
2022/11/22 04:02:57;;;;;;;8.43;4.43;;;4.80;99.90;;;;;;5045187;28;20434;-58
2022/11/22 04:05:23;;;;;;;4.00;3.10;;;4.80;99.90;;;;;;5047880;28;20495;-58
2022/11/22 04:07:48;;;;;;;7.23;3.30;;;4.80;99.90;;;;;;5041156;28;20673;-58
2022/11/22 04:10:14;;;;;;;4.70;3.73;;;4.80;99.90;;;;;;5049361;28;20709;-58
2022/11/22 04:12:40;;;;;;;3.70;3.10;;;4.70;99.90;;;;;;5038566;28;20893;-58
2022/11/22 04:15:06;;;;;;;4.70;3.40;;;4.70;99.90;;;;;;5048508;28;20178;-58
2022/11/22 04:17:39;;;;;;;6.70;3.43;;;4.70;99.90;;;;;;5048323;28;20191;-57
2022/11/22 04:23:05;;;;;;;4.63;3.57;;;4.70;99.90;;;;;;5046133;28;20436;-59
2022/11/22 04:25:32;;;;;;;7.50;4.00;;;4.70;99.90;;;;;;5043050;28;20520;-59
2022/11/22 04:27:58;;;;;;;5.57;3.37;;;4.60;99.90;;;;;;5048867;28;20453;-59
2022/11/22 04:32:44;;;;;;;6.40;3.70;;;4.60;99.90;;;;;;5043040;28;20429;-60
2022/11/22 04:33:11;;;;;;;8.07;3.30;;;4.60;99.90;;;;;;5046215;28;20492;-58
2022/11/22 04:35:37;;;;;;;3.67;3.10;;;4.60;99.90;;;;;;5044646;28;20469;-58
2022/11/22 04:38:04;;;;;;;4.93;3.23;;;4.70;99.90;;;;;;5045918;28;20461;-59
2022/11/22 04:40:30;;;;;;;3.87;3.43;;;4.70;99.90;;;;;;5047575;28;20461;-59
2022/11/22 04:45:40;;;;;;;5.50;3.07;;;4.70;99.90;;;;;;5044246;28;20436;-59
2022/11/22 04:48:05;;;;;;;3.27;2.97;;;4.70;99.90;;;;;;5031605;28;20457;-58
2022/11/22 04:53:17;;;;;;;4.63;3.33;;;4.70;99.90;;;;;;5047703;28;20194;-59
2022/11/22 04:55:45;;;;;;;6.10;3.87;;;4.70;99.90;;;;;;5045690;28;20480;-59
2022/11/22 04:58:12;;;;;;;9.43;3.37;;;4.70;99.90;;;;;;5039135;28;20464;-59
2022/11/22 05:00:38;;;;;;;6.70;3.03;;;4.60;99.90;;;;;;5046910;28;20477;-59
2022/11/22 05:03:04;;;;;;;5.73;3.20;;;4.60;99.90;;;;;;5043527;28;20504;-60
2022/11/22 05:05:30;;;;;;;4.77;3.20;;;4.60;99.90;;;;;;5038432;28;20198;-60
2022/11/22 05:07:57;;;;;;;6.00;3.50;;;4.60;99.90;;;;;;5034439;28;20433;-60
2022/11/22 05:10:23;;;;;;;8.80;3.53;;;4.60;99.90;;;;;;5036601;28;20436;-60
2022/11/22 05:12:49;;;;;;;5.23;3.03;;;4.60;99.90;;;;;;5043227;28;20797;-60
2022/11/22 05:15:14;;;;;;;5.23;2.90;;;4.60;99.90;;;;;;5043323;28;20179;-60
2022/11/22 05:17:40;;;;;;;4.87;3.30;;;4.60;99.90;;;;;;5042154;28;20191;-60
2022/11/22 05:20:07;;;;;;;10.30;3.40;;;4.60;99.90;;;;;;5039142;28;20205;-60
2022/11/22 05:25:17;;;;;;;4.57;2.93;;;4.60;99.90;;;;;;5041866;28;21071;-60
2022/11/22 05:27:43;;;;;;;9.73;3.20;;;4.60;99.90;;;;;;5044916;28;20437;-60
2022/11/22 05:30:09;;;;;;;7.87;3.67;;;4.60;99.90;;;;;;5043558;28;20240;-60
2022/11/22 05:32:35;;;;;;;7.43;3.60;;;4.60;99.90;;;;;;5024385;28;20792;-60
2022/11/22 05:35:00;;;;;;;3.13;2.83;;;4.50;99.90;;;;;;5040099;28;20190;-60
2022/11/22 05:37:26;;;;;;;9.47;3.30;;;4.60;99.90;;;;;;5030742;28;20210;-60
2022/11/22 05:39:52;;;;;;;4.00;3.13;;;4.50;99.90;;;;;;5043275;28;20221;-60
2022/11/22 05:42:18;;;;;;;12.30;3.73;;;4.50;99.90;;;;;;5044247;28;20262;-60
2022/11/22 05:44:43;;;;;;;8.73;3.70;;;4.50;99.90;;;;;;5048956;28;20178;-60
2022/11/22 05:47:09;;;;;;;7.47;3.83;;;4.50;99.90;;;;;;5039137;28;20906;-59
2022/11/22 05:49:35;;;;;;;9.17;4.20;;;4.50;99.90;;;;;;5049259;28;20288;-59
2022/11/22 05:52:02;;;;;;;9.20;3.93;;;4.50;99.90;;;;;;5047518;28;20200;-60
2022/11/22 05:54:28;;;;;;;10.90;4.77;;;4.40;99.90;;;;;;5048808;28;20704;-59
2022/11/22 05:56:54;;;;;;;6.80;4.60;;;4.50;99.90;;;;;;5044783;28;20441;-60
2022/11/22 05:59:20;;;;;;;7.60;4.23;;;4.40;99.90;;;;;;5041476;28;20454;-60
2022/11/22 06:01:45;;;;;;;7.17;4.23;;;4.40;99.90;;;;;;5045976;28;20815;-59
2022/11/22 06:04:11;;;;;;;6.17;3.47;;;4.40;99.90;;;;;;5044655;28;20175;-60
2022/11/22 06:06:37;;;;;;;6.23;3.83;;;4.40;99.90;;;;;;5047363;28;20198;-59
2022/11/22 06:09:03;;;;;;;8.53;4.73;;;4.40;99.90;;;;;;5047297;28;20199;-59
2022/11/22 06:11:28;;;;;;;6.90;4.40;;;4.40;99.90;;;;;;5049172;28;20550;-60
2022/11/22 06:13:56;;;;;;;7.57;4.20;;;4.40;99.90;;;;;;5032875;28;20191;-59
2022/11/22 06:16:23;;;;;;;7.20;3.70;;;4.30;99.90;;;;;;5042651;28;20182;-59
2022/11/22 06:18:49;;;;;;;5.33;3.37;;;4.30;99.90;;;;;;5042902;28;20475;-60
2022/11/22 06:21:17;;;;;;;10.00;3.87;;;4.30;99.90;;;;;;5044684;28;20465;-59
2022/11/22 06:23:43;;;;;;;4.47;3.33;;;4.30;99.90;;;;;;5042375;28;20430;-59
2022/11/22 06:26:12;;;;;;;7.50;3.70;;;4.40;99.90;;;;;;5048054;28;20457;-59
2022/11/22 06:28:39;;;;;;;10.17;4.27;;;4.40;99.90;;;;;;5046169;28;20499;-59
2022/11/22 06:31:19;;;;;;;8.47;4.20;;;4.30;99.90;;;;;;5049176;28;20406;-60
2022/11/22 06:33:45;;;;;;;8.13;4.60;;;4.30;99.90;;;;;;5042894;28;20427;-60
2022/11/22 06:36:25;;;;;;;10.60;4.47;;;4.40;99.90;;;;;;5044155;28;20506;-59
2022/11/22 06:38:52;;;;;;;11.70;4.50;;;4.40;99.90;;;;;;5039774;28;20600;-59
2022/11/22 06:41:23;;;;;;;15.03;5.70;;;4.40;99.90;;;;;;5046506;28;20548;-59
2022/11/22 06:43:50;;;;;;;6.93;4.00;;;4.40;99.90;;;;;;5042823;28;20934;-59
2022/11/22 06:46:17;;;;;;;9.43;4.20;;;4.40;99.90;;;;;;5043424;28;20418;-59
2022/11/22 06:48:43;;;;;;;6.57;3.93;;;4.40;99.90;;;;;;5039470;28;20507;-59
2022/11/22 06:51:18;;;;;;;9.77;4.20;;;4.40;99.90;;;;;;5043157;28;20418;-59
2022/11/22 06:53:44;;;;;;;8.73;4.37;;;4.40;99.90;;;;;;5042418;28;20175;-59
2022/11/22 06:56:12;;;;;;;8.93;4.33;;;4.40;99.90;;;;;;5049027;28;20433;-59
2022/11/22 06:58:38;;;;;;;11.00;5.20;;;4.40;99.90;;;;;;5045256;28;20483;-59
2022/11/22 07:01:11;;;;;;;6.50;4.63;;;4.40;99.90;;;;;;5040588;28;20457;-59
2022/11/22 07:03:38;;;;;;;8.93;5.37;;;4.40;99.90;;;;;;5046867;28;20430;-59
2022/11/22 07:06:04;;;;;;;16.57;5.00;;;4.40;99.90;;;;;;5046466;28;20441;-60
2022/11/22 07:08:30;;;;;;;9.40;4.60;;;4.40;99.90;;;;;;5044732;28;20908;-60
2022/11/22 07:11:05;;;;;;;13.13;4.80;;;4.40;99.90;;;;;;5037348;28;20959;-59
2022/11/22 07:13:31;;;;;;;11.73;4.97;;;4.40;99.90;;;;;;5046282;28;20425;-59
2022/11/22 07:15:58;;;;;;;9.37;4.80;;;4.40;99.90;;;;;;5046961;28;20424;-59
2022/11/22 07:18:24;;;;;;;7.43;4.73;;;4.40;99.90;;;;;;5047958;28;20464;-59
2022/11/22 07:20:50;;;;;;;12.37;5.47;;;4.40;99.90;;;;;;5052860;28;20448;-60
2022/11/22 07:23:16;;;;;;;9.10;4.47;;;4.40;99.90;;;;;;5046288;28;20192;-59
2022/11/22 07:25:45;;;;;;;10.93;4.43;;;4.40;99.90;;;;;;5047615;28;20176;-60
2022/11/22 07:28:12;;;;;;;10.87;5.27;;;4.40;99.90;;;;;;5051517;28;20685;-60
2022/11/22 07:30:38;;;;;;;12.37;4.47;;;4.40;99.90;;;;;;5050277;28;20467;-61
2022/11/22 07:33:04;;;;;;;21.50;5.20;;;4.40;99.90;;;;;;5047642;28;20433;-60
2022/11/22 07:35:29;;;;;;;10.77;5.03;;;4.50;99.90;;;;;;5041920;28;20452;-60
2022/11/22 07:37:55;;;;;;;13.03;5.73;;;4.50;99.90;;;;;;5032993;28;20273;-60
2022/11/22 07:40:20;;;;;;;18.00;5.13;;;4.40;99.90;;;;;;5044487;28;20294;-59
2022/11/22 07:42:46;;;;;;;20.23;6.13;;;4.50;99.90;;;;;;5047345;28;20179;-59
2022/11/22 07:45:12;;;;;;;42.10;6.17;;;4.50;99.90;;;;;;5048189;28;20665;-60
2022/11/22 07:47:37;;;;;;;38.87;6.03;;;4.50;99.90;;;;;;5042233;28;20748;-59
2022/11/22 07:50:03;;;;;;;25.63;6.37;;;4.50;99.90;;;;;;5044282;28;22332;-60
2022/11/22 07:52:29;;;;;;;23.27;6.27;;;4.50;99.90;;;;;;5051250;28;20167;-60
2022/11/22 07:54:54;;;;;;;32.63;6.53;;;4.50;99.90;;;;;;5050554;28;20437;-60
2022/11/22 07:57:20;;;;;;;26.00;5.83;;;4.50;99.90;;;;;;5046779;28;20661;-59
2022/11/22 07:59:46;;;;;;;15.73;4.33;;;4.50;99.90;;;;;;5047612;28;20187;-59
2022/11/22 08:02:11;;;;;;;12.03;4.87;;;4.50;99.90;;;;;;5049269;28;20270;-59
2022/11/22 08:04:37;;;;;;;9.83;4.70;;;4.60;99.90;;;;;;5049291;28;20263;-59
2022/11/22 08:07:03;;;;;;;10.00;4.53;;;4.60;99.90;;;;;;5043419;28;20182;-60
2022/11/22 08:09:29;;;;;;;7.20;4.10;;;4.60;99.90;;;;;;5051399;28;20207;-60
2022/11/22 08:11:55;;;;;;;19.70;5.97;;;4.70;99.90;;;;;;5045547;28;21028;-59
2022/11/22 08:14:21;;;;;;;17.50;6.10;;;4.70;99.90;;;;;;5046565;28;20179;-60
2022/11/22 08:16:46;;;;;;;15.17;6.10;;;4.70;99.90;;;;;;5045527;28;20828;-60
2022/11/22 08:19:16;;;;;;;12.43;5.80;;;4.70;99.90;;;;;;5049766;28;20265;-59
2022/11/22 08:21:42;;;;;;;13.57;6.20;;;4.70;99.90;;;;;;5049177;28;20206;-59
2022/11/22 08:24:07;;;;;;;16.30;6.27;;;4.70;99.90;;;;;;5051192;28;20441;-59
2022/11/22 08:26:33;;;;;;;13.23;6.30;;;4.80;99.90;;;;;;5037825;28;20469;-59
2022/11/22 08:28:59;;;;;;;13.63;4.80;;;4.80;99.90;;;;;;5045435;28;20249;-60
2022/11/22 08:31:26;;;;;;;9.17;5.20;;;4.80;99.90;;;;;;5047703;28;20429;-59
2022/11/22 08:33:52;;;;;;;12.77;4.27;;;4.80;99.90;;;;;;5040977;28;20516;-60
2022/11/22 08:36:18;;;;;;;9.43;4.13;;;4.80;99.90;;;;;;5045104;28;20440;-59
2022/11/22 08:38:44;;;;;;;7.10;3.93;;;4.80;99.90;;;;;;5048616;28;20441;-60
2022/11/22 08:41:09;;;;;;;12.40;3.77;;;4.80;99.90;;;;;;5047334;28;20214;-59
2022/11/22 08:43:35;;;;;;;12.90;3.83;;;4.90;99.90;;;;;;5044287;28;20783;-59
2022/11/22 08:46:02;;;;;;;11.30;3.93;;;4.90;99.90;;;;;;5047713;28;20249;-59
2022/11/22 08:48:30;;;;;;;10.93;4.17;;;4.90;99.90;;;;;;5044105;28;20453;-60
2022/11/22 08:51:01;;;;;;;8.10;3.60;;;5.00;99.90;;;;;;5050993;28;20977;-60
2022/11/22 08:53:30;;;;;;;9.33;2.80;;;5.00;99.90;;;;;;5049320;28;20447;-60
2022/11/22 08:55:59;;;;;;;12.87;3.43;;;5.00;99.90;;;;;;5026259;28;20435;-60
2022/11/22 08:58:25;;;;;;;9.57;3.30;;;5.00;99.90;;;;;;5045795;28;20453;-59
2022/11/22 09:00:50;;;;;;;9.57;3.33;;;5.00;99.90;;;;;;5044781;28;20472;-61
2022/11/22 09:03:16;;;;;;;9.60;3.90;;;5.10;99.90;;;;;;5045271;28;20214;-61
2022/11/22 09:05:42;;;;;;;9.40;3.50;;;5.10;99.90;;;;;;5046804;28;20225;-59
2022/11/22 09:08:07;;;;;;;8.53;3.70;;;5.10;99.90;;;;;;5048731;28;21943;-60
2022/11/22 09:10:33;;;;;;;7.90;3.30;;;5.20;99.90;;;;;;5038567;28;20250;-60
2022/11/22 09:12:58;;;;;;;16.00;3.80;;;5.10;99.90;;;;;;5026824;28;20222;-59
2022/11/22 09:15:24;;;;;;;15.23;4.03;;;5.20;99.90;;;;;;5045407;28;20506;-59
2022/11/22 09:17:50;;;;;;;9.77;4.97;;;5.20;99.90;;;;;;5050044;28;20198;-59
2022/11/22 09:20:16;;;;;;;12.00;3.97;;;5.20;99.90;;;;;;5047625;28;20674;-60
2022/11/22 09:22:42;;;;;;;7.70;2.80;;;5.20;99.90;;;;;;5047301;28;20194;-59
2022/11/22 09:25:07;;;;;;;9.83;3.10;;;5.30;99.90;;;;;;5026171;28;20448;-59
2022/11/22 09:27:34;;;;;;;17.43;3.27;;;5.30;99.90;;;;;;5049819;28;20245;-59
2022/11/22 09:29:59;;;;;;;7.10;2.80;;;5.30;99.90;;;;;;5043402;28;20904;-60
2022/11/22 09:32:25;;;;;;;8.90;3.70;;;5.30;99.90;;;;;;5045340;28;20532;-60
2022/11/22 09:34:51;;;;;;;12.60;6.77;;;5.40;99.90;;;;;;5039821;28;20693;-60
2022/11/22 09:37:18;;;;;;;9.50;4.80;;;5.30;99.90;;;;;;5048678;28;20183;-60
2022/11/22 09:39:47;;;;;;;7.40;3.33;;;5.40;99.90;;;;;;5042930;28;20237;-60
2022/11/22 09:42:15;;;;;;;14.53;5.67;;;5.40;99.90;;;;;;5044051;28;20494;-59
2022/11/22 09:45:35;;;;;;;17.93;4.27;;;5.50;99.90;;;;;;5046476;28;20992;-61
2022/11/22 09:48:00;;;;;;;12.83;3.77;;;5.50;99.90;;;;;;4993321;28;20521;-59
2022/11/22 09:50:50;;;;;;;5.43;2.87;;;5.50;99.90;;;;;;5040868;28;20437;-59
2022/11/22 09:53:38;;;;;;;7.37;2.73;;;5.60;99.90;;;;;;5043558;28;20203;-60
2022/11/22 09:56:10;;;;;;;5.37;2.27;;;5.60;99.90;;;;;;5045461;28;20468;-59
2022/11/22 09:58:54;;;;;;;11.37;2.87;;;5.70;99.90;;;;;;5048527;28;20453;-60
2022/11/22 10:01:33;;;;;;;4.47;2.47;;;5.70;99.90;;;;;;5044901;28;20469;-59
2022/11/22 10:04:09;;;;;;;16.77;2.80;;;5.80;99.90;;;;;;5045594;28;21142;-59
2022/11/22 10:06:39;;;;;;;10.93;2.60;;;5.80;99.90;;;;;;5049231;28;20437;-59
2022/11/22 10:09:21;;;;;;;9.43;2.40;;;5.80;99.90;;;;;;5044664;28;20454;-59
2022/11/22 10:11:55;;;;;;;8.90;2.47;;;5.80;99.90;;;;;;5048291;28;20437;-60
2022/11/22 10:14:45;;;;;;;9.93;2.90;;;5.80;99.90;;;;;;5045258;28;20428;-59
2022/11/22 10:17:43;;;;;;;6.00;2.23;;;5.70;99.90;;;;;;5045793;28;20422;-59
2022/11/22 10:20:17;;;;;;;8.53;2.70;;;5.70;99.90;;;;;;5045238;28;20874;-59
2022/11/22 10:22:44;;;;;;;7.60;2.93;;;5.80;99.90;;;;;;5041496;28;20962;-59
2022/11/22 10:25:20;;;;;;;4.90;2.10;;;5.80;99.90;;;;;;5044295;28;20967;-60
2022/11/22 10:27:57;;;;;;;3.27;1.50;;;5.80;99.90;;;;;;5035675;28;20434;-60
2022/11/22 10:30:24;;;;;;;6.70;1.73;;;5.80;99.90;;;;;;5043632;28;20803;-60
2022/11/22 10:33:08;;;;;;;5.03;1.93;;;5.70;99.90;;;;;;5048128;28;20433;-60
2022/11/22 10:35:50;;;;;;;6.37;2.00;;;5.70;99.90;;;;;;5040606;28;20433;-59
2022/11/22 10:38:25;;;;;;;8.83;1.70;;;5.80;99.90;;;;;;5044865;28;20458;-59
2022/11/22 10:41:10;;;;;;;4.40;2.17;;;5.80;99.90;;;;;;5030020;28;20464;-59
2022/11/22 10:43:48;;;;;;;7.00;1.70;;;5.80;99.90;;;;;;5040721;28;20575;-59
2022/11/22 10:46:25;;;;;;;3.37;2.00;;;5.80;99.90;;;;;;5030282;28;20418;-59
2022/11/22 10:49:11;;;;;;;8.00;2.17;;;5.80;99.90;;;;;;5043541;28;20458;-60
2022/11/22 10:51:56;;;;;;;5.50;2.10;;;5.90;99.90;;;;;;5046548;28;20960;-59
2022/11/22 10:54:44;;;;;;;6.30;1.60;;;5.90;99.90;;;;;;5046527;28;20443;-60
2022/11/22 10:57:25;;;;;;;6.83;2.20;;;6.00;99.90;;;;;;5051742;28;20425;-60
2022/11/22 11:00:17;;;;;;;9.00;2.23;;;6.00;99.90;;;;;;5051586;28;20461;-60
2022/11/22 11:03:02;;;;;;;7.63;1.90;;;6.00;99.90;;;;;;5031849;28;20441;-59
2022/11/22 11:06:13;;;;;;;9.37;2.17;;;6.00;99.90;;;;;;5026465;28;20426;-60
2022/11/22 11:08:44;;;;;;;8.20;1.80;;;6.00;99.90;;;;;;5034627;28;20444;-59
2022/11/22 11:11:12;;;;;;;4.83;1.60;;;6.00;99.90;;;;;;5049739;28;20420;-59
2022/11/22 11:13:45;;;;;;;10.03;2.30;;;6.00;99.90;;;;;;5028484;28;20857;-60
2022/11/22 11:16:17;;;;;;;3.57;1.83;;;5.90;99.90;;;;;;5030893;28;20943;-59
2022/11/22 11:18:53;;;;;;;11.67;1.60;;;6.00;99.90;;;;;;5046770;28;20465;-59
2022/11/22 11:21:18;;;;;;;3.40;1.80;;;6.00;99.90;;;;;;5042426;28;20523;-60
2022/11/22 11:23:44;;;;;;;9.00;1.90;;;6.00;99.90;;;;;;5027204;28;20437;-59
2022/11/22 11:26:22;;;;;;;4.73;2.17;;;6.00;99.90;;;;;;5043644;28;20195;-59
2022/11/22 11:28:48;;;;;;;6.93;2.20;;;6.00;99.90;;;;;;5049460;28;20203;-60
2022/11/22 11:31:17;;;;;;;12.70;2.13;;;6.00;99.90;;;;;;5050428;28;20967;-59
2022/11/22 11:33:43;;;;;;;5.00;1.67;;;6.00;99.90;;;;;;5042611;28;20434;-60
2022/11/22 11:36:16;;;;;;;4.00;1.90;;;5.90;99.90;;;;;;5046195;28;20429;-60
2022/11/22 11:38:42;;;;;;;6.70;2.00;;;6.00;99.90;;;;;;5041212;28;20963;-59
2022/11/22 11:41:19;;;;;;;4.37;1.67;;;6.00;99.90;;;;;;5046067;28;20506;-60
2022/11/22 11:43:46;;;;;;;1.97;1.13;;;6.10;99.90;;;;;;5045425;28;20540;-59
2022/11/22 11:46:21;;;;;;;5.73;1.53;;;6.10;99.90;;;;;;5049645;28;20456;-59
2022/11/22 11:48:48;;;;;;;7.17;1.70;;;6.10;99.90;;;;;;5042692;28;20484;-60
2022/11/22 11:51:17;;;;;;;3.67;1.63;;;6.20;99.90;;;;;;5048182;28;23274;-60
2022/11/22 11:53:50;;;;;;;5.17;1.70;;;6.10;99.90;;;;;;5049696;28;20425;-59
2022/11/22 11:56:33;;;;;;;8.20;1.87;;;6.10;99.90;;;;;;5024636;28;20428;-60
2022/11/22 11:59:09;;;;;;;4.67;1.77;;;6.20;99.90;;;;;;5044665;28;20975;-59
2022/11/22 12:01:36;;;;;;;6.10;2.90;;;6.20;99.90;;;;;;5047217;28;20472;-59
2022/11/22 12:04:04;;;;;;;2.70;1.80;;;6.30;99.90;;;;;;5050486;28;20437;-59
2022/11/22 12:06:31;;;;;;;5.90;1.73;;;6.30;99.90;;;;;;5041565;28;20528;-59
2022/11/22 12:08:58;;;;;;;5.83;2.17;;;6.30;99.90;;;;;;5047005;28;20441;-60
2022/11/22 12:11:40;;;;;;;5.90;3.17;;;6.40;99.90;;;;;;5046444;28;20544;-60
2022/11/22 12:14:11;;;;;;;19.20;5.50;;;6.40;99.90;;;;;;5043727;28;20429;-60
2022/11/22 12:16:45;;;;;;;7.13;3.57;;;6.40;99.90;;;;;;5038256;28;20511;-59
2022/11/22 12:19:26;;;;;;;5.90;2.60;;;6.40;99.90;;;;;;5042696;28;20496;-59
2022/11/22 12:22:15;;;;;;;5.73;2.50;;;6.50;99.90;;;;;;5041534;28;20457;-60
2022/11/22 12:24:52;;;;;;;3.90;1.90;;;6.50;99.90;;;;;;5039983;28;20422;-59
2022/11/22 12:27:18;;;;;;;8.20;2.53;;;6.50;99.90;;;;;;5042982;28;20430;-60
2022/11/22 12:29:44;;;;;;;10.70;2.50;;;6.60;99.90;;;;;;5042093;28;20990;-60
2022/11/22 12:32:26;;;;;;;4.07;1.67;;;6.60;99.90;;;;;;5043910;28;20638;-59
2022/11/22 12:35:03;;;;;;;6.47;2.30;;;6.60;99.90;;;;;;5018750;28;20479;-60
2022/11/22 12:37:38;;;;;;;6.30;1.63;;;6.60;99.90;;;;;;5040009;28;20429;-59
2022/11/22 12:40:12;;;;;;;7.70;3.00;;;6.60;99.90;;;;;;5036203;28;20538;-60
2022/11/22 12:42:45;;;;;;;5.13;2.57;;;6.60;99.90;;;;;;5038214;28;20540;-59
2022/11/22 12:45:20;;;;;;;8.60;2.07;;;6.60;99.40;;;;;;5036077;28;20919;-61
2022/11/22 12:47:49;;;;;;;4.77;1.80;;;6.60;96.60;;;;;;5039578;28;20428;-59
2022/11/22 12:50:25;;;;;;;1.70;1.60;;;6.60;97.50;;;;;;5038686;28;20432;-59
2022/11/22 12:53:00;;;;;;;8.77;1.87;;;6.60;98.30;;;;;;5042932;28;20418;-59
2022/11/22 12:55:49;;;;;;;3.97;1.30;;;6.50;97.50;;;;;;5042039;28;20502;-59
2022/11/22 12:58:44;;;;;;;2.30;1.23;;;6.50;93.30;;;;;;5038166;28;20485;-59
2022/11/22 13:01:27;;;;;;;2.17;1.57;;;6.50;96.00;;;;;;5014062;28;20461;-60
2022/11/22 13:04:00;;;;;;;1.50;1.20;;;6.40;94.00;;;;;;5038331;28;20422;-59
2022/11/22 13:06:33;;;;;;;2.13;1.40;;;6.30;95.40;;;;;;5041196;28;20425;-59
2022/11/22 13:09:03;;;;;;;4.70;1.40;;;6.40;96.60;;;;;;5041571;28;20444;-59
2022/11/22 13:11:56;;;;;;;4.67;2.10;;;6.40;97.00;;;;;;5040405;28;20952;-59
2022/11/22 13:14:53;;;;;;;8.03;1.87;;;6.40;98.20;;;;;;5021342;28;20438;-59
2022/11/22 13:17:21;;;;;;;10.13;2.00;;;6.50;99.50;;;;;;5041775;28;20472;-60
2022/11/22 13:19:53;;;;;;;4.03;1.60;;;6.60;98.70;;;;;;5044227;28;20948;-59